sensor_id;sensor_type;location;lat;lon;timestamp;pressure;altitude;pressure_sealevel;temperature;humidity
54146;BME280;65909;49.422;7.738;2023-03-01T00:00:14;78589.22;;;-145.25;65.31
54146;BME280;65909;49.422;7.738;2023-03-01T00:02:39;78593.22;;;-145.25;65.34
54146;BME280;65909;49.422;7.738;2023-03-01T00:05:05;78601.25;;;-145.25;65.87
54146;BME280;65909;49.422;7.738;2023-03-01T00:07:32;78613.28;;;-145.25;65.71
54146;BME280;65909;49.422;7.738;2023-03-01T00:09:57;78617.28;;;-145.25;65.79
54146;BME280;65909;49.422;7.738;2023-03-01T00:12:23;78583.19;;;-145.25;65.24
54146;BME280;65909;49.422;7.738;2023-03-01T00:14:48;78585.19;;;-145.25;65.49
54146;BME280;65909;49.422;7.738;2023-03-01T00:17:14;78611.28;;;-145.25;65.80
54146;BME280;65909;49.422;7.738;2023-03-01T00:19:39;78575.16;;;-145.25;65.09
54146;BME280;65909;49.422;7.738;2023-03-01T00:22:04;78595.22;;;-145.25;65.65
54146;BME280;65909;49.422;7.738;2023-03-01T00:24:30;78595.22;;;-145.25;65.29
54146;BME280;65909;49.422;7.738;2023-03-01T00:26:55;78579.19;;;-145.25;65.30
54146;BME280;65909;49.422;7.738;2023-03-01T00:29:22;78561.13;;;-145.25;64.96
54146;BME280;65909;49.422;7.738;2023-03-01T00:31:47;78577.16;;;-145.25;65.36
54146;BME280;65909;49.422;7.738;2023-03-01T00:34:13;78563.13;;;-145.25;65.07
54146;BME280;65909;49.422;7.738;2023-03-01T00:36:38;78573.16;;;-145.25;65.33
54146;BME280;65909;49.422;7.738;2023-03-01T00:39:07;78539.06;;;-145.25;64.79
54146;BME280;65909;49.422;7.738;2023-03-01T00:41:33;78551.09;;;-145.25;64.60
54146;BME280;65909;49.422;7.738;2023-03-01T00:43:59;78553.09;;;-145.25;64.74
54146;BME280;65909;49.422;7.738;2023-03-01T00:46:26;78577.16;;;-145.25;65.15
54146;BME280;65909;49.422;7.738;2023-03-01T00:48:52;78555.09;;;-145.25;65.37
54146;BME280;65909;49.422;7.738;2023-03-01T00:51:24;78575.16;;;-145.25;65.65
54146;BME280;65909;49.422;7.738;2023-03-01T00:53:54;78587.19;;;-145.25;65.90
54146;BME280;65909;49.422;7.738;2023-03-01T00:56:23;78587.19;;;-145.25;66.27
54146;BME280;65909;49.422;7.738;2023-03-01T00:58:48;78575.16;;;-145.25;66.25
54146;BME280;65909;49.422;7.738;2023-03-01T01:01:17;78539.06;;;-145.25;65.20
54146;BME280;65909;49.422;7.738;2023-03-01T01:03:49;78539.06;;;-145.25;65.44
54146;BME280;65909;49.422;7.738;2023-03-01T01:06:32;78549.09;;;-145.25;64.72
54146;BME280;65909;49.422;7.738;2023-03-01T01:08:58;78537.06;;;-145.25;64.86
54146;BME280;65909;49.422;7.738;2023-03-01T01:11:26;78543.06;;;-145.25;65.30
54146;BME280;65909;49.422;7.738;2023-03-01T01:13:51;78527.03;;;-145.25;65.23
54146;BME280;65909;49.422;7.738;2023-03-01T01:16:18;78557.09;;;-145.25;65.89
54146;BME280;65909;49.422;7.738;2023-03-01T01:18:44;78555.09;;;-145.25;66.26
54146;BME280;65909;49.422;7.738;2023-03-01T01:21:13;78525.00;;;-145.25;65.15
54146;BME280;65909;49.422;7.738;2023-03-01T01:23:40;78549.09;;;-145.25;66.02
54146;BME280;65909;49.422;7.738;2023-03-01T01:26:08;78531.03;;;-145.25;65.72
54146;BME280;65909;49.422;7.738;2023-03-01T01:28:34;78531.03;;;-145.25;66.08
54146;BME280;65909;49.422;7.738;2023-03-01T01:30:59;78543.06;;;-145.25;66.44
54146;BME280;65909;49.422;7.738;2023-03-01T01:33:25;78519.00;;;-145.25;66.08
54146;BME280;65909;49.422;7.738;2023-03-01T01:35:51;78508.97;;;-145.25;65.39
54146;BME280;65909;49.422;7.738;2023-03-01T01:38:16;78521.00;;;-145.25;65.81
54146;BME280;65909;49.422;7.738;2023-03-01T01:40:45;78498.94;;;-145.25;65.50
54146;BME280;65909;49.422;7.738;2023-03-01T01:43:26;78494.94;;;-145.25;65.16
54146;BME280;65909;49.422;7.738;2023-03-01T01:45:55;78488.91;;;-145.25;64.91
54146;BME280;65909;49.422;7.738;2023-03-01T01:48:24;78486.91;;;-145.25;65.24
54146;BME280;65909;49.422;7.738;2023-03-01T01:51:00;78502.94;;;-145.25;65.42
54146;BME280;65909;49.422;7.738;2023-03-01T01:53:26;78492.91;;;-145.25;65.53
54146;BME280;65909;49.422;7.738;2023-03-01T01:55:55;78506.97;;;-145.25;65.69
54146;BME280;65909;49.422;7.738;2023-03-01T01:58:24;78506.97;;;-145.25;65.49
54146;BME280;65909;49.422;7.738;2023-03-01T02:00:52;78531.03;;;-145.25;66.19
54146;BME280;65909;49.422;7.738;2023-03-01T02:03:25;78543.06;;;-145.25;66.20
54146;BME280;65909;49.422;7.738;2023-03-01T02:05:58;78553.09;;;-145.25;66.44
54146;BME280;65909;49.422;7.738;2023-03-01T02:08:29;78559.13;;;-145.25;67.24
54146;BME280;65909;49.422;7.738;2023-03-01T02:10:56;78559.13;;;-145.25;67.10
54146;BME280;65909;49.422;7.738;2023-03-01T02:13:22;78587.19;;;-145.25;67.58
54146;BME280;65909;49.422;7.738;2023-03-01T02:15:49;78573.16;;;-145.25;67.32
54146;BME280;65909;49.422;7.738;2023-03-01T02:18:17;78575.16;;;-145.25;67.45
54146;BME280;65909;49.422;7.738;2023-03-01T02:21:05;78567.13;;;-145.25;67.61
54146;BME280;65909;49.422;7.738;2023-03-01T02:23:33;78561.13;;;-145.25;67.71
54146;BME280;65909;49.422;7.738;2023-03-01T02:26:15;78575.16;;;-145.25;67.67
54146;BME280;65909;49.422;7.738;2023-03-01T02:28:43;78559.13;;;-145.25;67.94
54146;BME280;65909;49.422;7.738;2023-03-01T02:31:10;78531.03;;;-145.25;66.82
54146;BME280;65909;49.422;7.738;2023-03-01T02:33:58;78539.06;;;-145.25;67.43
54146;BME280;65909;49.422;7.738;2023-03-01T02:36:26;78537.06;;;-145.25;67.19
54146;BME280;65909;49.422;7.738;2023-03-01T02:38:57;78531.03;;;-145.25;67.44
54146;BME280;65909;49.422;7.738;2023-03-01T02:41:24;78539.06;;;-145.25;67.78
54146;BME280;65909;49.422;7.738;2023-03-01T02:43:50;78547.09;;;-145.25;68.46
54146;BME280;65909;49.422;7.738;2023-03-01T02:46:21;78523.00;;;-145.25;67.66
54146;BME280;65909;49.422;7.738;2023-03-01T02:48:53;78496.94;;;-145.25;67.29
54146;BME280;65909;49.422;7.738;2023-03-01T02:54:34;78523.00;;;-145.25;68.14
54146;BME280;65909;49.422;7.738;2023-03-01T02:57:02;78515.00;;;-145.25;68.16
54146;BME280;65909;49.422;7.738;2023-03-01T02:59:31;78508.97;;;-145.25;67.58
54146;BME280;65909;49.422;7.738;2023-03-01T03:02:07;78515.00;;;-145.25;67.59
54146;BME280;65909;49.422;7.738;2023-03-01T03:04:33;78519.00;;;-145.25;67.69
54146;BME280;65909;49.422;7.738;2023-03-01T03:06:58;78517.00;;;-145.25;68.06
54146;BME280;65909;49.422;7.738;2023-03-01T03:09:24;78512.97;;;-145.25;67.88
54146;BME280;65909;49.422;7.738;2023-03-01T03:11:49;78533.03;;;-145.25;67.88
54146;BME280;65909;49.422;7.738;2023-03-01T03:14:16;78523.00;;;-145.25;67.98
54146;BME280;65909;49.422;7.738;2023-03-01T03:16:44;78506.97;;;-145.25;67.60
54146;BME280;65909;49.422;7.738;2023-03-01T03:19:10;78508.97;;;-145.25;67.42
54146;BME280;65909;49.422;7.738;2023-03-01T03:21:36;78519.00;;;-145.25;67.40
54146;BME280;65909;49.422;7.738;2023-03-01T03:24:02;78543.06;;;-145.25;68.49
54146;BME280;65909;49.422;7.738;2023-03-01T03:26:27;78551.09;;;-145.25;69.00
54146;BME280;65909;49.422;7.738;2023-03-01T03:28:53;78527.03;;;-145.25;68.67
54146;BME280;65909;49.422;7.738;2023-03-01T03:31:18;78539.06;;;-145.25;68.48
54146;BME280;65909;49.422;7.738;2023-03-01T03:33:44;78557.09;;;-145.25;69.01
54146;BME280;65909;49.422;7.738;2023-03-01T03:36:13;78555.09;;;-145.25;69.35
54146;BME280;65909;49.422;7.738;2023-03-01T03:38:39;78529.03;;;-145.25;69.21
54146;BME280;65909;49.422;7.738;2023-03-01T03:41:07;78531.03;;;-145.25;68.79
54146;BME280;65909;49.422;7.738;2023-03-01T03:43:34;78519.00;;;-145.25;68.61
54146;BME280;65909;49.422;7.738;2023-03-01T03:46:01;78537.06;;;-145.25;68.73
54146;BME280;65909;49.422;7.738;2023-03-01T03:48:34;78527.03;;;-145.25;68.54
54146;BME280;65909;49.422;7.738;2023-03-01T03:50:59;78543.06;;;-145.25;69.09
54146;BME280;65909;49.422;7.738;2023-03-01T03:53:27;78535.03;;;-145.25;69.09
54146;BME280;65909;49.422;7.738;2023-03-01T03:55:53;78519.00;;;-145.25;68.54
54146;BME280;65909;49.422;7.738;2023-03-01T03:58:20;78500.94;;;-145.25;68.12
54146;BME280;65909;49.422;7.738;2023-03-01T04:00:47;78523.00;;;-145.25;68.38
54146;BME280;65909;49.422;7.738;2023-03-01T04:03:14;78545.06;;;-145.25;69.06
54146;BME280;65909;49.422;7.738;2023-03-01T04:05:41;78561.13;;;-145.25;69.42
54146;BME280;65909;49.422;7.738;2023-03-01T04:08:07;78567.13;;;-145.25;69.88
54146;BME280;65909;49.422;7.738;2023-03-01T04:10:38;78561.13;;;-145.25;69.71
54146;BME280;65909;49.422;7.738;2023-03-01T04:13:05;78557.09;;;-145.25;69.75
54146;BME280;65909;49.422;7.738;2023-03-01T04:15:31;78569.16;;;-145.25;69.83
54146;BME280;65909;49.422;7.738;2023-03-01T04:17:57;78555.09;;;-145.25;69.91
54146;BME280;65909;49.422;7.738;2023-03-01T04:20:26;78547.09;;;-145.25;69.39
54146;BME280;65909;49.422;7.738;2023-03-01T04:25:23;78559.13;;;-145.25;70.16
54146;BME280;65909;49.422;7.738;2023-03-01T04:27:49;78567.13;;;-145.25;70.31
54146;BME280;65909;49.422;7.738;2023-03-01T04:30:14;78567.13;;;-145.25;70.56
54146;BME280;65909;49.422;7.738;2023-03-01T04:32:40;78553.09;;;-145.25;70.21
54146;BME280;65909;49.422;7.738;2023-03-01T04:35:08;78569.16;;;-145.25;70.59
54146;BME280;65909;49.422;7.738;2023-03-01T04:37:34;78583.19;;;-145.25;71.51
54146;BME280;65909;49.422;7.738;2023-03-01T04:40:00;78577.16;;;-145.25;71.23
54146;BME280;65909;49.422;7.738;2023-03-01T04:42:26;78573.16;;;-145.25;71.25
54146;BME280;65909;49.422;7.738;2023-03-01T04:44:52;78567.13;;;-145.25;70.62
54146;BME280;65909;49.422;7.738;2023-03-01T04:47:17;78559.13;;;-145.25;70.83
54146;BME280;65909;49.422;7.738;2023-03-01T04:49:42;78545.06;;;-145.25;70.70
54146;BME280;65909;49.422;7.738;2023-03-01T04:52:08;78523.00;;;-145.25;69.50
54146;BME280;65909;49.422;7.738;2023-03-01T04:54:35;78539.06;;;-145.25;69.93
54146;BME280;65909;49.422;7.738;2023-03-01T04:57:02;78523.00;;;-145.25;69.80
54146;BME280;65909;49.422;7.738;2023-03-01T04:59:28;78519.00;;;-145.25;69.68
54146;BME280;65909;49.422;7.738;2023-03-01T05:01:54;78523.00;;;-145.25;69.42
54146;BME280;65909;49.422;7.738;2023-03-01T05:04:24;78539.06;;;-145.25;70.19
54146;BME280;65909;49.422;7.738;2023-03-01T05:06:49;78539.06;;;-145.25;69.69
54146;BME280;65909;49.422;7.738;2023-03-01T05:09:15;78527.03;;;-145.25;69.25
54146;BME280;65909;49.422;7.738;2023-03-01T05:11:41;78527.03;;;-145.25;69.42
54146;BME280;65909;49.422;7.738;2023-03-01T05:14:07;78512.97;;;-145.25;69.08
54146;BME280;65909;49.422;7.738;2023-03-01T05:16:34;78510.97;;;-145.25;69.24
54146;BME280;65909;49.422;7.738;2023-03-01T05:19:03;78519.00;;;-145.25;68.56
54146;BME280;65909;49.422;7.738;2023-03-01T05:21:41;78498.94;;;-145.25;68.41
54146;BME280;65909;49.422;7.738;2023-03-01T05:24:26;78523.00;;;-145.25;68.98
54146;BME280;65909;49.422;7.738;2023-03-01T05:26:52;78531.03;;;-145.25;69.72
54146;BME280;65909;49.422;7.738;2023-03-01T05:29:22;78512.97;;;-145.25;69.37
54146;BME280;65909;49.422;7.738;2023-03-01T05:32:00;78496.94;;;-145.25;68.61
54146;BME280;65909;49.422;7.738;2023-03-01T05:34:31;78502.94;;;-145.25;69.12
54146;BME280;65909;49.422;7.738;2023-03-01T05:36:57;78500.94;;;-145.25;69.34
54146;BME280;65909;49.422;7.738;2023-03-01T05:39:24;78515.00;;;-145.25;69.75
54146;BME280;65909;49.422;7.738;2023-03-01T05:41:55;78502.94;;;-145.25;68.98
54146;BME280;65909;49.422;7.738;2023-03-01T05:44:21;78508.97;;;-145.25;68.76
54146;BME280;65909;49.422;7.738;2023-03-01T05:46:47;78488.91;;;-145.25;68.57
54146;BME280;65909;49.422;7.738;2023-03-01T05:49:13;78490.91;;;-145.25;68.41
54146;BME280;65909;49.422;7.738;2023-03-01T05:51:39;78472.88;;;-145.25;67.39
54146;BME280;65909;49.422;7.738;2023-03-01T05:54:05;78494.94;;;-145.25;68.43
54146;BME280;65909;49.422;7.738;2023-03-01T05:56:32;78486.91;;;-145.25;68.36
54146;BME280;65909;49.422;7.738;2023-03-01T05:58:58;78519.00;;;-145.25;68.50
54146;BME280;65909;49.422;7.738;2023-03-01T06:01:24;78512.97;;;-145.25;69.04
54146;BME280;65909;49.422;7.738;2023-03-01T06:03:49;78490.91;;;-145.25;68.89
54146;BME280;65909;49.422;7.738;2023-03-01T06:06:14;78480.88;;;-145.25;68.46
54146;BME280;65909;49.422;7.738;2023-03-01T06:08:40;78478.88;;;-145.25;68.32
54146;BME280;65909;49.422;7.738;2023-03-01T06:11:05;78472.88;;;-145.25;67.74
54146;BME280;65909;49.422;7.738;2023-03-01T06:13:32;78480.88;;;-145.25;68.06
54146;BME280;65909;49.422;7.738;2023-03-01T06:15:57;78490.91;;;-145.25;68.48
54146;BME280;65909;49.422;7.738;2023-03-01T06:18:23;78492.91;;;-145.25;67.82
54146;BME280;65909;49.422;7.738;2023-03-01T06:20:55;78490.91;;;-145.25;68.38
54146;BME280;65909;49.422;7.738;2023-03-01T06:23:21;78488.91;;;-145.25;68.73
54146;BME280;65909;49.422;7.738;2023-03-01T06:25:47;78492.91;;;-145.25;68.65
54146;BME280;65909;49.422;7.738;2023-03-01T06:28:12;78452.81;;;-145.25;67.82
54146;BME280;65909;49.422;7.738;2023-03-01T06:30:37;78430.75;;;-145.25;67.82
54146;BME280;65909;49.422;7.738;2023-03-01T06:33:03;78430.75;;;-145.25;67.30
54146;BME280;65909;49.422;7.738;2023-03-01T06:35:29;78420.72;;;-145.25;66.99
54146;BME280;65909;49.422;7.738;2023-03-01T06:37:55;78434.75;;;-145.25;67.19
54146;BME280;65909;49.422;7.738;2023-03-01T06:40:20;78430.75;;;-145.25;67.19
54146;BME280;65909;49.422;7.738;2023-03-01T06:42:48;78450.81;;;-145.25;67.80
54146;BME280;65909;49.422;7.738;2023-03-01T06:45:14;78452.81;;;-145.25;67.54
54146;BME280;65909;49.422;7.738;2023-03-01T06:47:40;78430.75;;;-145.25;67.43
54146;BME280;65909;49.422;7.738;2023-03-01T06:50:05;78410.69;;;-145.25;67.57
54146;BME280;65909;49.422;7.738;2023-03-01T06:52:31;78408.69;;;-145.25;67.10
54146;BME280;65909;49.422;7.738;2023-03-01T06:54:56;78346.50;;;-145.25;65.73
54146;BME280;65909;49.422;7.738;2023-03-01T06:57:22;78342.47;;;-145.25;65.42
54146;BME280;65909;49.422;7.738;2023-03-01T06:59:47;78368.56;;;-145.25;65.85
54146;BME280;65909;49.422;7.738;2023-03-01T07:02:14;78354.53;;;-145.25;65.39
54146;BME280;65909;49.422;7.738;2023-03-01T07:04:40;78348.50;;;-145.25;64.99
54146;BME280;65909;49.422;7.738;2023-03-01T07:07:06;78374.56;;;-145.25;66.20
54146;BME280;65909;49.422;7.738;2023-03-01T07:09:31;78358.53;;;-145.25;65.84
54146;BME280;65909;49.422;7.738;2023-03-01T07:11:57;78348.50;;;-145.25;64.94
54146;BME280;65909;49.422;7.738;2023-03-01T07:14:22;78370.56;;;-145.25;65.99
54146;BME280;65909;49.422;7.738;2023-03-01T07:16:50;78350.50;;;-145.25;65.49
54146;BME280;65909;49.422;7.738;2023-03-01T07:19:16;78322.44;;;-145.25;64.73
54146;BME280;65909;49.422;7.738;2023-03-01T07:21:41;78338.47;;;-145.25;64.96
54146;BME280;65909;49.422;7.738;2023-03-01T07:24:07;78254.22;;;-145.25;64.10
54146;BME280;65909;49.422;7.738;2023-03-01T07:26:33;78224.16;;;-145.25;62.28
54146;BME280;65909;49.422;7.738;2023-03-01T07:29:00;78163.97;;;-145.25;60.92
54146;BME280;65909;49.422;7.738;2023-03-01T07:31:25;78131.88;;;-145.25;59.41
54146;BME280;65909;49.422;7.738;2023-03-01T07:33:53;78085.75;;;-145.25;58.84
54146;BME280;65909;49.422;7.738;2023-03-01T07:36:19;77985.47;;;-145.25;56.70
54146;BME280;65909;49.422;7.738;2023-03-01T07:38:44;77945.34;;;-145.25;55.26
54146;BME280;65909;49.422;7.738;2023-03-01T07:41:09;77810.97;;;-145.25;53.05
54146;BME280;65909;49.422;7.738;2023-03-01T07:43:35;77774.88;;;-145.25;51.53
54146;BME280;65909;49.422;7.738;2023-03-01T07:46:01;77720.72;;;-145.25;51.01
54146;BME280;65909;49.422;7.738;2023-03-01T07:48:27;77616.44;;;-145.25;48.59
54146;BME280;65909;49.422;7.738;2023-03-01T07:50:53;77534.22;;;-145.25;47.10
54146;BME280;65909;49.422;7.738;2023-03-01T07:53:18;77510.16;;;-145.25;46.60
54146;BME280;65909;49.422;7.738;2023-03-01T07:55:44;77514.16;;;-145.25;46.33
54146;BME280;65909;49.422;7.738;2023-03-01T07:58:09;77588.38;;;-145.25;46.08
54146;BME280;65909;49.422;7.738;2023-03-01T08:00:34;77654.56;;;-145.25;48.06
54146;BME280;65909;49.422;7.738;2023-03-01T08:03:00;77606.44;;;-145.25;46.75
54146;BME280;65909;49.422;7.738;2023-03-01T08:05:26;77624.47;;;-145.25;48.07
54146;BME280;65909;49.422;7.738;2023-03-01T08:07:52;77464.03;;;-145.25;46.11
54146;BME280;65909;49.422;7.738;2023-03-01T08:10:18;77407.88;;;-145.25;43.89
54146;BME280;65909;49.422;7.738;2023-03-01T08:12:43;77309.63;;;-145.25;43.59
54146;BME280;65909;49.422;7.738;2023-03-01T08:15:09;77111.13;;;-145.25;41.44
54146;BME280;65909;49.422;7.738;2023-03-01T08:17:34;76882.53;;;-145.25;38.76
54146;BME280;65909;49.422;7.738;2023-03-01T08:20:00;76950.69;;;-145.25;38.48
54146;BME280;65909;49.422;7.738;2023-03-01T08:22:25;76860.47;;;-145.25;36.51
54146;BME280;65909;49.422;7.738;2023-03-01T08:24:50;76832.41;;;-145.25;37.01
54146;BME280;65909;49.422;7.738;2023-03-01T08:27:16;76672.00;;;-145.25;35.87
54146;BME280;65909;49.422;7.738;2023-03-01T08:29:42;76766.25;;;-145.25;35.79
54146;BME280;65909;49.422;7.738;2023-03-01T08:32:07;76700.06;;;-145.25;35.16
54146;BME280;65909;49.422;7.738;2023-03-01T08:34:32;76623.88;;;-145.25;34.02
54146;BME280;65909;49.422;7.738;2023-03-01T08:37:00;76591.81;;;-145.25;33.78
54146;BME280;65909;49.422;7.738;2023-03-01T08:39:26;76525.63;;;-145.25;33.44
54146;BME280;65909;49.422;7.738;2023-03-01T08:41:52;76579.78;;;-145.25;33.56
54146;BME280;65909;49.422;7.738;2023-03-01T08:44:17;76513.63;;;-145.25;33.89
54146;BME280;65909;49.422;7.738;2023-03-01T08:46:51;76351.22;;;-145.25;31.93
54146;BME280;65909;49.422;7.738;2023-03-01T08:49:19;76188.84;;;-145.25;30.07
54146;BME280;65909;49.422;7.738;2023-03-01T08:51:46;76176.81;;;-145.25;30.69
54146;BME280;65909;49.422;7.738;2023-03-01T08:54:14;76204.88;;;-145.25;30.19
54146;BME280;65909;49.422;7.738;2023-03-01T08:56:40;76214.91;;;-145.25;30.56
54146;BME280;65909;49.422;7.738;2023-03-01T08:59:07;76158.75;;;-145.25;29.73
54146;BME280;65909;49.422;7.738;2023-03-01T09:01:32;76176.81;;;-145.25;30.24
54146;BME280;65909;49.422;7.738;2023-03-01T09:03:58;76048.50;;;-145.25;29.26
54146;BME280;65909;49.422;7.738;2023-03-01T09:06:24;75986.38;;;-145.25;28.78
54146;BME280;65909;49.422;7.738;2023-03-01T09:08:50;76042.50;;;-145.25;28.68
54146;BME280;65909;49.422;7.738;2023-03-01T09:11:18;76066.53;;;-145.25;28.54
54146;BME280;65909;49.422;7.738;2023-03-01T09:13:44;76022.44;;;-145.25;28.00
54146;BME280;65909;49.422;7.738;2023-03-01T09:16:11;76313.13;;;-145.25;29.77
54146;BME280;65909;49.422;7.738;2023-03-01T09:18:38;76094.63;;;-145.25;28.66
54146;BME280;65909;49.422;7.738;2023-03-01T09:21:08;75914.19;;;-145.25;27.91
54146;BME280;65909;49.422;7.738;2023-03-01T09:23:35;75930.22;;;-145.25;27.56
54146;BME280;65909;49.422;7.738;2023-03-01T09:26:08;75952.28;;;-145.25;27.48
54146;BME280;65909;49.422;7.738;2023-03-01T09:28:35;75956.28;;;-145.25;27.96
54146;BME280;65909;49.422;7.738;2023-03-01T09:31:02;75751.81;;;-145.25;26.42
54146;BME280;65909;49.422;7.738;2023-03-01T09:33:29;75669.66;;;-145.25;26.27
54146;BME280;65909;49.422;7.738;2023-03-01T09:36:02;75741.81;;;-145.25;26.25
54146;BME280;65909;49.422;7.738;2023-03-01T09:38:28;76010.41;;;-145.25;27.75
54146;BME280;65909;49.422;7.738;2023-03-01T09:40:54;75888.13;;;-145.25;27.11
54146;BME280;65909;49.422;7.738;2023-03-01T09:43:25;75767.88;;;-145.25;26.32
54146;BME280;65909;49.422;7.738;2023-03-01T09:45:54;75619.53;;;-145.25;25.60
54146;BME280;65909;49.422;7.738;2023-03-01T09:48:24;75717.75;;;-145.25;26.18
54146;BME280;65909;49.422;7.738;2023-03-01T09:50:51;75807.94;;;-145.25;26.07
54146;BME280;65909;49.422;7.738;2023-03-01T09:53:23;75777.88;;;-145.25;26.46
54146;BME280;65909;49.422;7.738;2023-03-01T09:55:55;75836.00;;;-145.25;26.64
54146;BME280;65909;49.422;7.738;2023-03-01T10:01:35;75607.50;;;-145.25;25.76
54146;BME280;65909;49.422;7.738;2023-03-01T10:04:23;75834.00;;;-145.25;26.63
54146;BME280;65909;49.422;7.738;2023-03-01T10:07:14;75583.44;;;-145.25;25.76
54146;BME280;65909;49.422;7.738;2023-03-01T10:09:44;75435.13;;;-145.25;24.64
54146;BME280;65909;49.422;7.738;2023-03-01T10:12:14;75691.69;;;-145.25;25.67
54146;BME280;65909;49.422;7.738;2023-03-01T10:20:16;75713.75;;;-145.25;26.43
54146;BME280;65909;49.422;7.738;2023-03-01T10:22:42;75529.34;;;-145.25;24.88
54146;BME280;65909;49.422;7.738;2023-03-01T10:25:13;75655.63;;;-145.25;25.45
54146;BME280;65909;49.422;7.738;2023-03-01T10:27:53;75423.09;;;-145.25;24.91
54146;BME280;65909;49.422;7.738;2023-03-01T10:30:39;75457.19;;;-145.25;24.90
54146;BME280;65909;49.422;7.738;2023-03-01T10:33:31;75419.09;;;-145.25;24.74
54146;BME280;65909;49.422;7.738;2023-03-01T10:35:57;75581.44;;;-145.25;25.09
54146;BME280;65909;49.422;7.738;2023-03-01T10:38:23;75332.91;;;-145.25;24.03
54146;BME280;65909;49.422;7.738;2023-03-01T10:41:00;75437.13;;;-145.25;24.72
54146;BME280;65909;49.422;7.738;2023-03-01T10:43:51;75635.56;;;-145.25;25.95
54146;BME280;65909;49.422;7.738;2023-03-01T10:51:32;75535.34;;;-145.25;25.29
54146;BME280;65909;49.422;7.738;2023-03-01T10:53:57;75182.59;;;-145.25;23.58
54146;BME280;65909;49.422;7.738;2023-03-01T10:56:22;75274.78;;;-145.25;23.69
54146;BME280;65909;49.422;7.738;2023-03-01T10:59:00;75242.72;;;-145.25;23.84
54146;BME280;65909;49.422;7.738;2023-03-01T11:01:34;75403.06;;;-145.25;24.29
54146;BME280;65909;49.422;7.738;2023-03-01T11:06:32;75306.84;;;-145.25;24.18
54146;BME280;65909;49.422;7.738;2023-03-01T11:09:13;75138.50;;;-145.25;23.62
54146;BME280;65909;49.422;7.738;2023-03-01T11:11:40;75447.16;;;-145.25;24.39
54146;BME280;65909;49.422;7.738;2023-03-01T11:14:17;75330.91;;;-145.25;24.47
54146;BME280;65909;49.422;7.738;2023-03-01T11:16:48;75234.69;;;-145.25;24.27
54146;BME280;65909;49.422;7.738;2023-03-01T11:19:17;75262.75;;;-145.25;23.91
54146;BME280;65909;49.422;7.738;2023-03-01T11:22:02;74980.16;;;-145.25;22.84
54146;BME280;65909;49.422;7.738;2023-03-01T11:24:43;75186.59;;;-145.25;23.04
54146;BME280;65909;49.422;7.738;2023-03-01T11:27:18;74968.16;;;-145.25;22.44
54146;BME280;65909;49.422;7.738;2023-03-01T11:29:48;74940.09;;;-145.25;22.36
54146;BME280;65909;49.422;7.738;2023-03-01T11:32:16;75114.44;;;-145.25;23.19
54146;BME280;65909;49.422;7.738;2023-03-01T11:35:22;75100.41;;;-145.25;22.53
54146;BME280;65909;49.422;7.738;2023-03-01T11:40:32;75114.44;;;-145.25;22.59
54146;BME280;65909;49.422;7.738;2023-03-01T11:45:51;75282.81;;;-145.25;23.13
54146;BME280;65909;49.422;7.738;2023-03-01T11:48:29;75140.50;;;-145.25;22.66
54146;BME280;65909;49.422;7.738;2023-03-01T11:51:02;75024.25;;;-145.25;22.04
54146;BME280;65909;49.422;7.738;2023-03-01T11:56:32;75080.38;;;-145.25;22.60
54146;BME280;65909;49.422;7.738;2023-03-01T12:06:57;75190.59;;;-145.25;23.26
54146;BME280;65909;49.422;7.738;2023-03-01T12:12:30;75082.38;;;-145.25;21.93
54146;BME280;65909;49.422;7.738;2023-03-01T12:18:02;75138.50;;;-145.25;22.56
54146;BME280;65909;49.422;7.738;2023-03-01T12:29:08;75156.53;;;-145.25;22.46
54146;BME280;65909;49.422;7.738;2023-03-01T12:40:03;75218.66;;;-145.25;22.65
54146;BME280;65909;49.422;7.738;2023-03-01T12:43:12;75433.13;;;-145.25;23.40
54146;BME280;65909;49.422;7.738;2023-03-01T12:45:58;75222.69;;;-145.25;22.58
54146;BME280;65909;49.422;7.738;2023-03-01T12:51:24;75507.28;;;-145.25;24.04
54146;BME280;65909;49.422;7.738;2023-03-01T12:53:53;75326.91;;;-145.25;23.65
54146;BME280;65909;49.422;7.738;2023-03-01T12:56:25;75330.91;;;-145.25;24.23
54146;BME280;65909;49.422;7.738;2023-03-01T13:02:08;75583.44;;;-145.25;25.01
54146;BME280;65909;49.422;7.738;2023-03-01T13:04:38;75695.69;;;-145.25;25.84
54146;BME280;65909;49.422;7.738;2023-03-01T13:07:45;75767.88;;;-145.25;26.12
54146;BME280;65909;49.422;7.738;2023-03-01T13:10:22;75691.69;;;-145.25;26.09
54146;BME280;65909;49.422;7.738;2023-03-01T13:17:50;75763.84;;;-145.25;26.51
54146;BME280;65909;49.422;7.738;2023-03-01T13:20:24;75896.16;;;-145.25;27.21
54146;BME280;65909;49.422;7.738;2023-03-01T13:23:02;75819.97;;;-145.25;27.11
54146;BME280;65909;49.422;7.738;2023-03-01T13:25:28;75741.81;;;-145.25;26.71
54146;BME280;65909;49.422;7.738;2023-03-01T13:30:56;75900.16;;;-145.25;27.35
54146;BME280;65909;49.422;7.738;2023-03-01T13:35:57;75920.22;;;-145.25;27.83
54146;BME280;65909;49.422;7.738;2023-03-01T13:38:56;76006.41;;;-145.25;28.16
54146;BME280;65909;49.422;7.738;2023-03-01T13:46:54;76162.78;;;-145.25;29.28
54146;BME280;65909;49.422;7.738;2023-03-01T13:49:30;76142.72;;;-145.25;29.43
54146;BME280;65909;49.422;7.738;2023-03-01T13:51:58;76124.69;;;-145.25;29.30
54146;BME280;65909;49.422;7.738;2023-03-01T13:54:30;76120.66;;;-145.25;29.21
54146;BME280;65909;49.422;7.738;2023-03-01T13:56:58;76174.81;;;-145.25;29.52
54146;BME280;65909;49.422;7.738;2023-03-01T13:59:24;76194.84;;;-145.25;29.99
54146;BME280;65909;49.422;7.738;2023-03-01T14:01:59;76180.81;;;-145.25;29.90
54146;BME280;65909;49.422;7.738;2023-03-01T14:04:29;76170.78;;;-145.25;29.68
54146;BME280;65909;49.422;7.738;2023-03-01T14:07:16;76182.81;;;-145.25;30.26
54146;BME280;65909;49.422;7.738;2023-03-01T14:09:45;76224.91;;;-145.25;30.43
54146;BME280;65909;49.422;7.738;2023-03-01T14:15:06;76224.91;;;-145.25;30.30